createdAt,value
2019-03-13T00:03:49.448Z,2.92
2019-03-13T00:08:58.369Z,2.42
2019-03-13T00:14:07.191Z,2.76
2019-03-13T00:19:16.200Z,3.20
2019-03-13T00:24:25.063Z,3.05
2019-03-13T00:29:33.967Z,2.73
2019-03-13T00:34:42.863Z,3.34
2019-03-13T00:39:51.751Z,3.17
2019-03-13T00:45:00.655Z,3.19
2019-03-13T00:50:09.534Z,3.64
2019-03-13T00:55:18.419Z,3.36
2019-03-13T01:00:27.293Z,3.21
2019-03-13T01:05:36.145Z,3.22
2019-03-13T01:10:45.055Z,3.54
2019-03-13T01:15:53.995Z,3.80
2019-03-13T01:21:02.901Z,3.20
2019-03-13T01:26:11.921Z,3.89
2019-03-13T01:31:20.815Z,3.85
2019-03-13T01:36:29.716Z,3.58
2019-03-13T01:41:38.652Z,3.55
2019-03-13T01:46:47.501Z,3.65
2019-03-13T01:51:56.392Z,3.84
2019-03-13T01:57:05.355Z,3.96
2019-03-13T02:02:14.196Z,4.68
2019-03-13T02:07:23.055Z,4.82
2019-03-13T02:12:31.907Z,5.73
2019-03-13T02:17:40.869Z,4.78
2019-03-13T02:22:49.725Z,4.28
2019-03-13T02:27:58.626Z,5.24
2019-03-13T02:33:07.492Z,4.10
2019-03-13T02:38:16.408Z,3.87
2019-03-13T02:43:25.291Z,3.94
2019-03-13T02:48:34.177Z,3.78
2019-03-13T02:53:43.225Z,4.40
2019-03-13T02:58:52.107Z,3.96
2019-03-13T03:04:00.973Z,4.04
2019-03-13T03:09:09.864Z,4.07
2019-03-13T03:14:18.734Z,4.34
2019-03-13T03:19:27.584Z,4.14
2019-03-13T03:24:36.559Z,5.20
2019-03-13T03:29:45.449Z,4.44
2019-03-13T03:34:54.328Z,4.57
2019-03-13T03:40:03.217Z,4.34
2019-03-13T03:45:12.143Z,4.81
2019-03-13T03:50:21.003Z,4.79
2019-03-13T03:55:30.049Z,4.89
2019-03-13T04:00:38.953Z,4.57
2019-03-13T04:05:47.825Z,4.57
2019-03-13T04:10:56.676Z,4.65
2019-03-13T04:16:05.631Z,4.96
2019-03-13T04:21:14.482Z,4.72
2019-03-13T04:26:23.400Z,4.46
2019-03-13T04:31:32.233Z,4.97
2019-03-13T04:36:41.288Z,5.03
2019-03-13T04:41:50.171Z,5.11
2019-03-13T04:46:59.084Z,4.88
2019-03-13T04:52:07.929Z,5.57
2019-03-13T04:57:16.885Z,5.02
2019-03-13T05:02:25.793Z,5.39
2019-03-13T05:07:34.731Z,4.80
2019-03-13T05:12:43.674Z,6.18
2019-03-13T05:17:52.552Z,5.53
2019-03-13T05:23:01.419Z,5.15
2019-03-13T05:28:10.324Z,4.70
2019-03-13T05:33:19.201Z,5.26
2019-03-13T05:38:28.044Z,5.22
2019-03-13T05:43:36.949Z,5.82
2019-03-13T05:48:45.796Z,6.27
2019-03-13T05:53:54.692Z,6.20
2019-03-13T05:59:03.566Z,6.27
2019-03-13T06:04:12.530Z,6.06
2019-03-13T06:09:21.455Z,7.58
2019-03-13T06:14:30.411Z,8.48
2019-03-13T06:19:39.310Z,8.92
2019-03-13T06:24:48.251Z,8.27
2019-03-13T06:29:57.117Z,7.46
2019-03-13T06:35:06.141Z,7.50
2019-03-13T06:40:15.032Z,6.93
2019-03-13T06:45:23.943Z,6.88
2019-03-13T06:50:32.796Z,6.39
2019-03-13T06:55:41.722Z,6.19
2019-03-13T07:00:50.572Z,6.42
2019-03-13T07:05:59.443Z,6.12
2019-03-13T07:11:08.318Z,6.22
2019-03-13T07:16:17.243Z,5.80
2019-03-13T07:21:26.132Z,6.43
2019-03-13T07:26:34.976Z,6.21
2019-03-13T07:31:43.929Z,6.11
2019-03-13T07:36:52.795Z,5.36
2019-03-13T07:42:01.703Z,5.75
2019-03-13T07:47:10.602Z,5.37
2019-03-13T07:52:19.522Z,5.75
2019-03-13T07:57:28.401Z,5.40
2019-03-13T08:02:37.272Z,5.18
2019-03-13T08:07:46.120Z,5.54
2019-03-13T08:12:54.998Z,5.43
2019-03-13T08:18:03.878Z,5.58
2019-03-13T08:23:12.835Z,5.67
2019-03-13T08:28:21.744Z,4.90
2019-03-13T08:33:30.859Z,4.79
2019-03-13T08:38:39.751Z,5.23
2019-03-13T08:43:48.664Z,5.97
2019-03-13T08:48:57.540Z,5.69
2019-03-13T08:54:06.571Z,7.23
2019-03-13T08:59:15.432Z,6.62
2019-03-13T09:04:24.315Z,7.12
2019-03-13T09:09:33.164Z,6.72
2019-03-13T09:14:42.059Z,6.08
2019-03-13T09:19:50.954Z,6.13
2019-03-13T09:25:11.160Z,6.01
2019-03-13T09:30:08.248Z,5.65
2019-03-13T09:35:17.147Z,5.98
2019-03-13T09:40:26.056Z,5.72
2019-03-13T09:45:34.966Z,6.33
2019-03-13T09:50:43.834Z,6.26
2019-03-13T09:55:52.689Z,6.10
2019-03-13T10:01:01.576Z,6.03
2019-03-13T10:06:10.519Z,6.04
2019-03-13T10:11:19.429Z,5.35
2019-03-13T10:16:28.379Z,5.78
2019-03-13T10:21:37.241Z,5.80
2019-03-13T10:26:46.115Z,5.69
2019-03-13T10:31:55.008Z,5.50
2019-03-13T10:37:03.882Z,5.45
2019-03-13T10:42:12.798Z,5.53
2019-03-13T10:47:21.672Z,5.22
2019-03-13T10:52:30.547Z,4.94
2019-03-13T10:57:39.536Z,5.04
2019-03-13T11:02:48.457Z,4.37
2019-03-13T11:07:57.383Z,5.57
2019-03-13T11:13:06.243Z,5.36
2019-03-13T11:18:17.980Z,5.88
2019-03-13T11:23:23.621Z,5.10
2019-03-13T11:28:32.539Z,5.02
2019-03-13T11:33:41.416Z,5.53
2019-03-13T11:38:50.298Z,5.29
2019-03-13T11:43:59.172Z,5.38
2019-03-13T11:49:08.065Z,4.58
2019-03-13T11:54:16.968Z,5.47
2019-03-13T11:59:25.830Z,5.40
2019-03-13T12:04:34.776Z,4.75
2019-03-13T12:09:43.643Z,5.35
2019-03-13T12:14:52.525Z,4.92
2019-03-13T12:20:01.380Z,5.41
2019-03-13T12:25:10.870Z,5.78
2019-03-13T12:30:19.766Z,5.51
2019-03-13T12:35:28.758Z,6.23
2019-03-13T12:40:37.529Z,6.02
2019-03-13T12:45:46.464Z,6.14
2019-03-13T12:50:55.352Z,6.28
2019-03-13T12:56:04.235Z,5.67
2019-03-13T13:01:13.117Z,5.63
2019-03-13T13:06:22.055Z,5.94
2019-03-13T13:11:30.923Z,5.53
2019-03-13T13:16:39.784Z,5.79
2019-03-13T13:21:48.671Z,5.73
2019-03-13T13:26:57.636Z,5.89
2019-03-13T13:32:06.500Z,5.76
2019-03-13T13:37:15.374Z,5.65
2019-03-13T13:42:24.284Z,5.14
2019-03-13T13:47:33.173Z,4.91
2019-03-13T13:52:42.029Z,4.91
2019-03-13T13:57:50.911Z,5.04
2019-03-13T14:02:59.791Z,5.28
2019-03-13T14:08:08.655Z,4.86
2019-03-13T14:13:17.517Z,5.44
2019-03-13T14:18:26.353Z,4.83
2019-03-13T14:23:35.279Z,4.74
2019-03-13T14:28:44.180Z,4.69
2019-03-13T14:33:53.099Z,4.73
2019-03-13T14:39:01.980Z,4.64
2019-03-13T14:44:10.903Z,4.42
2019-03-13T14:49:19.760Z,4.26
2019-03-13T14:54:28.683Z,4.71
2019-03-13T14:59:37.560Z,5.07
2019-03-13T15:04:46.439Z,5.27
2019-03-13T15:09:55.288Z,5.01
2019-03-13T15:15:04.155Z,4.71
2019-03-13T15:20:13.013Z,4.54
2019-03-13T15:25:21.960Z,5.36
2019-03-13T15:30:30.832Z,6.01
2019-03-13T15:35:39.753Z,6.51
2019-03-13T15:40:48.638Z,6.78
2019-03-13T15:45:57.570Z,8.12
2019-03-13T15:51:06.441Z,8.02
2019-03-13T15:56:15.340Z,8.67
2019-03-13T16:01:24.275Z,8.16
2019-03-13T16:06:33.139Z,8.35
2019-03-13T16:11:42.079Z,8.05
2019-03-13T16:16:50.935Z,7.93
2019-03-13T16:21:59.874Z,7.27
2019-03-13T16:27:08.759Z,8.03
2019-03-13T16:32:17.653Z,8.83
2019-03-13T16:37:26.531Z,8.43
2019-03-13T16:42:35.547Z,7.79
2019-03-13T16:47:57.811Z,8.07
2019-03-13T16:52:58.864Z,6.91
2019-03-13T16:58:09.947Z,6.74
2019-03-13T17:02:48.855Z,6.21
2019-03-13T17:07:57.719Z,5.82
2019-03-13T17:13:06.609Z,5.95
2019-03-13T17:18:15.456Z,6.38
2019-03-13T17:23:24.447Z,6.31
2019-03-13T17:28:33.301Z,7.02
2019-03-13T17:33:42.261Z,6.20
2019-03-13T17:38:51.078Z,5.84
2019-03-13T17:43:59.941Z,5.50
2019-03-13T17:49:08.807Z,5.83
2019-03-13T17:54:17.819Z,5.59
2019-03-13T17:59:26.703Z,5.35
2019-03-13T18:04:35.568Z,5.12
2019-03-13T18:09:44.475Z,5.28
2019-03-13T18:14:53.375Z,5.31
2019-03-13T18:20:02.335Z,4.90
2019-03-13T18:25:11.176Z,5.23
2019-03-13T18:30:20.090Z,5.34
2019-03-13T18:35:28.973Z,5.18
2019-03-13T18:40:37.905Z,5.26
2019-03-13T18:45:46.770Z,4.60
2019-03-13T18:50:55.638Z,4.74
2019-03-13T18:56:04.510Z,4.63
2019-03-13T19:01:13.468Z,4.60
2019-03-13T19:06:22.340Z,5.19
2019-03-13T19:11:31.261Z,5.63
2019-03-13T19:16:40.113Z,5.84
2019-03-13T19:21:49.019Z,5.53
2019-03-13T19:26:57.860Z,5.08
2019-03-13T19:32:06.735Z,5.87
2019-03-13T19:37:15.635Z,6.25
2019-03-13T19:42:24.531Z,5.42
2019-03-13T19:47:33.413Z,5.11
2019-03-13T19:52:42.301Z,5.63
2019-03-13T19:57:51.216Z,6.15
2019-03-13T20:03:00.679Z,5.83
2019-03-13T20:08:08.535Z,5.54
2019-03-13T20:13:17.479Z,5.03
2019-03-13T20:18:26.357Z,5.36
2019-03-13T20:23:35.238Z,5.10
2019-03-13T20:28:46.218Z,5.32
2019-03-13T20:33:52.544Z,5.13
2019-03-13T20:39:01.449Z,5.10
2019-03-13T20:44:10.340Z,5.04
2019-03-13T20:49:19.229Z,4.80
2019-03-13T20:54:28.092Z,4.88
2019-03-13T20:59:37.015Z,5.13
2019-03-13T21:04:45.919Z,5.19
2019-03-13T21:09:55.583Z,5.69
2019-03-13T21:15:03.248Z,5.75
2019-03-13T21:20:12.152Z,7.29
2019-03-13T21:25:21.040Z,6.22
2019-03-13T21:30:30.064Z,6.12
2019-03-13T21:35:38.939Z,5.44
2019-03-13T21:40:47.863Z,5.48
2019-03-13T21:45:56.738Z,5.65
2019-03-13T21:51:05.610Z,5.96
2019-03-13T21:56:14.491Z,6.22
2019-03-13T22:01:23.396Z,6.32
2019-03-13T22:06:32.299Z,5.96
2019-03-13T22:11:41.152Z,6.09
2019-03-13T22:16:50.019Z,6.19
2019-03-13T22:21:59.003Z,6.69
2019-03-13T22:27:07.910Z,6.44
2019-03-13T22:32:16.815Z,6.50
2019-03-13T22:37:25.720Z,6.12
2019-03-13T22:42:34.587Z,6.54
2019-03-13T22:47:43.787Z,6.73
2019-03-13T22:52:51.841Z,6.26
2019-03-13T22:58:01.644Z,6.58
2019-03-13T23:03:09.230Z,6.63
2019-03-13T23:08:18.167Z,7.38
2019-03-13T23:13:27.052Z,7.18
2019-03-13T23:18:35.943Z,6.52
2019-03-13T23:23:44.847Z,6.58
2019-03-13T23:28:53.709Z,7.00
2019-03-13T23:34:02.607Z,5.99
2019-03-13T23:39:11.471Z,6.13
2019-03-13T23:44:20.325Z,5.57
2019-03-13T23:49:29.168Z,5.84
2019-03-13T23:54:38.049Z,5.72
2019-03-13T23:59:46.905Z,5.85
